Time;durP1;ratioP1;P1;durP2;ratioP2;P2;SDS_P1;SDS_P2;PMS_P1;PMS_P2;Temp;Humidity;BMP_temperature;BMP_pressure;BME280_temperature;BME280_humidity;BME280_pressure;Samples;Min_cycle;Max_cycle;Signal;HPM_P1;HPM_P2
2022/09/30 00:01:16;;;;;;;0.20;0.20;;;;;;;;;;5093205;28;20031;-42
2022/09/30 00:03:42;;;;;;;0.38;0.35;;;;;;;;;;5092713;28;20035;-42
2022/09/30 00:06:08;;;;;;;0.95;0.32;;;;;;;;;;5093507;28;20120;-43
2022/09/30 00:08:33;;;;;;;0.40;0.40;;;;;;;;;;5093363;28;20852;-42
2022/09/30 00:11:00;;;;;;;0.40;0.40;;;;;;;;;;5093205;28;20073;-43
2022/09/30 00:13:25;;;;;;;0.40;0.38;;;;;;;;;;5093152;28;20020;-42
2022/09/30 00:15:51;;;;;;;1.42;0.70;;;;;;;;;;5093099;28;20484;-42
2022/09/30 00:18:16;;;;;;;0.40;0.30;;;;;;;;;;5093235;28;20038;-42
2022/09/30 00:20:41;;;;;;;1.33;0.40;;;;;;;;;;5093349;28;20012;-42
2022/09/30 00:23:07;;;;;;;0.60;0.57;;;;;;;;;;5092802;28;20032;-42
2022/09/30 00:25:32;;;;;;;0.98;0.73;;;;;;;;;;5091382;28;20042;-43
2022/09/30 00:27:57;;;;;;;0.93;0.70;;;;;;;;;;5092826;28;20069;-42
2022/09/30 00:30:23;;;;;;;0.38;0.38;;;;;;;;;;5092644;28;20054;-42
2022/09/30 00:32:48;;;;;;;0.47;0.45;;;;;;;;;;5092606;28;20093;-42
2022/09/30 00:35:13;;;;;;;0.47;0.30;;;;;;;;;;5092740;28;20024;-42
2022/09/30 00:37:39;;;;;;;0.77;0.47;;;;;;;;;;5091314;28;20847;-42
2022/09/30 00:40:04;;;;;;;0.30;0.30;;;;;;;;;;5092874;28;20091;-42
2022/09/30 00:42:30;;;;;;;0.17;0.17;;;;;;;;;;5092489;28;20089;-43
2022/09/30 00:45:02;;;;;;;0.45;0.30;;;;;;;;;;5092504;28;20020;-43
2022/09/30 00:47:36;;;;;;;0.60;0.40;;;;;;;;;;5092467;28;20101;-42
2022/09/30 00:50:11;;;;;;;0.43;0.32;;;;;;;;;;5092380;28;20073;-42
2022/09/30 00:52:36;;;;;;;0.40;0.40;;;;;;;;;;5092242;28;20482;-43
2022/09/30 00:55:05;;;;;;;0.45;0.20;;;;;;;;;;5092366;28;20016;-42
2022/09/30 00:57:30;;;;;;;1.23;0.30;;;;;;;;;;5092562;28;20077;-42
2022/09/30 00:59:55;;;;;;;0.75;0.40;;;;;;;;;;5092242;28;20016;-42
2022/09/30 01:02:21;;;;;;;1.02;0.65;;;;;;;;;;5091998;28;20047;-42
2022/09/30 01:04:46;;;;;;;1.10;0.50;;;;;;;;;;5092168;28;20015;-42
2022/09/30 01:07:13;;;;;;;0.82;0.35;;;;;;;;;;5091955;28;20043;-42
2022/09/30 01:09:39;;;;;;;0.95;0.20;;;;;;;;;;5092389;28;20410;-42
2022/09/30 01:12:06;;;;;;;1.08;0.30;;;;;;;;;;5092106;28;20111;-42
2022/09/30 01:14:31;;;;;;;0.28;0.20;;;;;;;;;;5091942;28;20012;-42
2022/09/30 01:17:02;;;;;;;1.50;0.38;;;;;;;;;;5091549;28;20471;-42
2022/09/30 01:19:50;;;;;;;0.52;0.20;;;;;;;;;;5092077;28;20050;-42
2022/09/30 01:22:39;;;;;;;0.20;0.20;;;;;;;;;;5091815;28;20024;-42
2022/09/30 01:25:14;;;;;;;4.00;0.40;;;;;;;;;;5091775;28;20040;-42
2022/09/30 01:27:57;;;;;;;0.32;0.22;;;;;;;;;;5091636;28;20040;-42
2022/09/30 01:30:42;;;;;;;0.50;0.13;;;;;;;;;;5091673;28;20058;-42
2022/09/30 01:33:18;;;;;;;0.65;0.35;;;;;;;;;;5091680;28;20390;-44
2022/09/30 01:36:02;;;;;;;0.50;0.50;;;;;;;;;;5091905;28;20024;-42
2022/09/30 01:38:30;;;;;;;0.65;0.10;;;;;;;;;;5091887;28;20085;-42
2022/09/30 01:40:56;;;;;;;0.20;0.20;;;;;;;;;;5091410;28;20030;-42
2022/09/30 01:43:33;;;;;;;0.50;0.50;;;;;;;;;;5091384;28;20036;-42
2022/09/30 01:46:10;;;;;;;0.22;0.20;;;;;;;;;;5091186;28;20143;-42
2022/09/30 01:48:56;;;;;;;0.17;0.17;;;;;;;;;;5091744;28;20077;-42
2022/09/30 01:51:33;;;;;;;0.43;0.20;;;;;;;;;;5091105;28;20036;-42
2022/09/30 01:54:01;;;;;;;0.45;0.22;;;;;;;;;;5091754;28;20114;-42
2022/09/30 01:56:31;;;;;;;0.30;0.20;;;;;;;;;;5091600;28;20065;-42
2022/09/30 01:59:13;;;;;;;0.20;0.20;;;;;;;;;;5091475;28;20036;-42
2022/09/30 02:01:43;;;;;;;0.32;0.28;;;;;;;;;;5091461;28;20028;-42
2022/09/30 02:04:12;;;;;;;1.63;0.30;;;;;;;;;;5091351;28;20055;-43
2022/09/30 02:06:40;;;;;;;0.30;0.20;;;;;;;;;;5091230;28;20040;-42
2022/09/30 02:09:26;;;;;;;0.57;0.22;;;;;;;;;;5091332;28;20024;-42
2022/09/30 02:11:55;;;;;;;0.10;0.10;;;;;;;;;;5091556;28;20385;-42
2022/09/30 02:14:20;;;;;;;0.25;0.25;;;;;;;;;;5091456;28;20024;-43
2022/09/30 02:16:53;;;;;;;0.20;0.20;;;;;;;;;;5091281;28;20028;-42
2022/09/30 02:19:22;;;;;;;0.20;0.15;;;;;;;;;;5091745;28;20454;-42
2022/09/30 02:21:52;;;;;;;0.68;0.17;;;;;;;;;;5091391;28;20028;-42
2022/09/30 02:24:18;;;;;;;0.38;0.15;;;;;;;;;;5089804;28;20039;-42
2022/09/30 02:26:46;;;;;;;0.20;0.20;;;;;;;;;;5091920;28;20475;-42
2022/09/30 02:29:11;;;;;;;0.47;0.20;;;;;;;;;;5095159;28;20770;-42
2022/09/30 02:31:39;;;;;;;2.10;0.30;;;;;;;;;;5094905;28;20020;-42
2022/09/30 02:34:07;;;;;;;0.35;0.10;;;;;;;;;;5095060;28;20027;-42
2022/09/30 02:36:39;;;;;;;0.20;0.10;;;;;;;;;;5094950;28;20020;-42
2022/09/30 02:39:06;;;;;;;0.10;0.10;;;;;;;;;;5094962;28;20390;-42
2022/09/30 02:41:40;;;;;;;0.10;0.10;;;;;;;;;;5094813;28;20046;-42
2022/09/30 02:44:06;;;;;;;0.13;0.10;;;;;;;;;;5094804;28;20032;-45
2022/09/30 02:46:51;;;;;;;0.20;0.20;;;;;;;;;;5093137;28;20075;-42
2022/09/30 02:49:21;;;;;;;0.20;0.20;;;;;;;;;;5094975;28;20028;-42
2022/09/30 02:51:59;;;;;;;0.10;0.10;;;;;;;;;;5094703;28;20031;-42
2022/09/30 02:54:54;;;;;;;0.30;0.25;;;;;;;;;;5094618;28;20028;-43
2022/09/30 02:57:37;;;;;;;0.20;0.20;;;;;;;;;;5085321;28;20559;-42
2022/09/30 03:00:03;;;;;;;0.10;0.10;;;;;;;;;;5094617;28;20082;-42
2022/09/30 03:02:29;;;;;;;0.20;0.20;;;;;;;;;;5094674;28;20019;-43
2022/09/30 03:04:54;;;;;;;0.20;0.20;;;;;;;;;;5094548;28;20425;-42
2022/09/30 03:07:19;;;;;;;0.10;0.10;;;;;;;;;;5094086;28;20035;-42
2022/09/30 03:09:45;;;;;;;0.10;0.10;;;;;;;;;;5094619;28;20020;-42
2022/09/30 03:12:19;;;;;;;0.10;0.10;;;;;;;;;;5094566;28;20047;-42
2022/09/30 03:14:51;;;;;;;0.10;0.10;;;;;;;;;;5094546;28;20036;-42
2022/09/30 03:17:25;;;;;;;0.20;0.10;;;;;;;;;;5094270;28;20093;-42
2022/09/30 03:20:09;;;;;;;4.60;0.55;;;;;;;;;;5094305;28;20070;-42
2022/09/30 03:22:53;;;;;;;1.75;0.20;;;;;;;;;;5092730;28;20464;-42
2022/09/30 03:25:24;;;;;;;0.15;0.15;;;;;;;;;;5094308;28;20379;-42
2022/09/30 03:28:10;;;;;;;0.17;0.17;;;;;;;;;;5094001;28;20486;-42
2022/09/30 03:30:40;;;;;;;0.10;0.10;;;;;;;;;;5086252;28;20050;-42
2022/09/30 03:33:06;;;;;;;0.15;0.15;;;;;;;;;;5094281;28;20055;-42
2022/09/30 03:35:31;;;;;;;1.10;0.20;;;;;;;;;;5093811;28;20059;-42
2022/09/30 03:37:59;;;;;;;0.20;0.20;;;;;;;;;;5093305;28;20008;-42
2022/09/30 03:40:40;;;;;;;0.17;0.17;;;;;;;;;;5093679;28;20119;-42
2022/09/30 03:43:11;;;;;;;0.10;0.10;;;;;;;;;;5093615;28;20036;-42
2022/09/30 03:46:00;;;;;;;0.28;0.20;;;;;;;;;;5093367;28;20040;-42
2022/09/30 03:48:26;;;;;;;0.05;0.05;;;;;;;;;;5087839;28;20439;-42
2022/09/30 03:50:53;;;;;;;0.15;0.10;;;;;;;;;;5093608;28;20509;-42
2022/09/30 03:53:19;;;;;;;0.10;0.10;;;;;;;;;;5093760;28;20051;-42
2022/09/30 03:55:46;;;;;;;0.17;0.17;;;;;;;;;;5093821;28;20116;-42
2022/09/30 03:58:12;;;;;;;0.10;0.10;;;;;;;;;;5093432;28;20093;-42
2022/09/30 04:00:42;;;;;;;0.80;0.22;;;;;;;;;;5093448;28;20051;-42
2022/09/30 04:03:08;;;;;;;0.10;0.10;;;;;;;;;;5093499;28;20461;-42
2022/09/30 04:05:33;;;;;;;0.90;0.20;;;;;;;;;;5093375;28;20103;-42
2022/09/30 04:07:59;;;;;;;0.10;0.10;;;;;;;;;;5093594;28;20128;-42
2022/09/30 04:10:24;;;;;;;0.10;0.10;;;;;;;;;;5093069;28;20416;-42
2022/09/30 04:12:52;;;;;;;0.20;0.20;;;;;;;;;;5093239;28;20059;-42
2022/09/30 04:15:17;;;;;;;0.10;0.10;;;;;;;;;;5093370;28;20054;-42
2022/09/30 04:17:42;;;;;;;3.17;0.20;;;;;;;;;;5093254;28;20097;-42
2022/09/30 04:20:08;;;;;;;1.00;0.20;;;;;;;;;;5093592;28;20020;-42
2022/09/30 04:22:33;;;;;;;0.20;0.20;;;;;;;;;;5093090;28;20425;-42
2022/09/30 04:24:58;;;;;;;0.10;0.10;;;;;;;;;;5092968;28;20020;-42
2022/09/30 04:27:24;;;;;;;0.20;0.20;;;;;;;;;;5093015;28;20050;-42
2022/09/30 04:29:49;;;;;;;0.65;0.20;;;;;;;;;;5092837;28;20091;-42
2022/09/30 04:32:15;;;;;;;0.15;0.15;;;;;;;;;;5092763;28;20027;-42
2022/09/30 04:34:40;;;;;;;0.10;0.10;;;;;;;;;;5092672;28;20046;-42
2022/09/30 04:37:05;;;;;;;0.47;0.35;;;;;;;;;;5092751;28;20148;-42
2022/09/30 04:39:31;;;;;;;0.15;0.10;;;;;;;;;;5092517;28;20060;-42
2022/09/30 04:41:57;;;;;;;0.65;0.10;;;;;;;;;;5092771;28;20467;-43
2022/09/30 04:44:23;;;;;;;0.65;0.50;;;;;;;;;;5092479;28;20012;-42
2022/09/30 04:46:49;;;;;;;0.32;0.15;;;;;;;;;;5092290;28;20062;-42
2022/09/30 04:49:14;;;;;;;2.33;0.40;;;;;;;;;;5092604;28;20031;-42
2022/09/30 04:51:42;;;;;;;0.10;0.10;;;;;;;;;;5091152;28;20032;-42
2022/09/30 04:54:08;;;;;;;0.32;0.15;;;;;;;;;;5092521;28;20012;-42
2022/09/30 04:56:33;;;;;;;0.25;0.10;;;;;;;;;;5092595;28;20036;-43
2022/09/30 04:58:59;;;;;;;2.40;0.47;;;;;;;;;;5092596;28;20024;-42
2022/09/30 05:01:25;;;;;;;1.55;0.20;;;;;;;;;;5092061;28;20074;-43
2022/09/30 05:03:51;;;;;;;4.00;0.43;;;;;;;;;;5092247;28;20393;-43
2022/09/30 05:06:17;;;;;;;1.13;0.73;;;;;;;;;;5091906;28;20055;-42
2022/09/30 05:08:42;;;;;;;5.82;1.83;;;;;;;;;;5092404;28;20052;-42
2022/09/30 05:11:09;;;;;;;0.20;0.20;;;;;;;;;;5092131;28;20553;-42
2022/09/30 05:13:39;;;;;;;1.20;0.40;;;;;;;;;;5092185;28;20020;-42
2022/09/30 05:16:05;;;;;;;0.30;0.28;;;;;;;;;;5091918;28;20032;-42
2022/09/30 05:18:33;;;;;;;1.15;0.30;;;;;;;;;;5091916;28;20046;-42
2022/09/30 05:20:58;;;;;;;0.30;0.25;;;;;;;;;;5092171;28;20035;-42
2022/09/30 05:23:24;;;;;;;0.93;0.20;;;;;;;;;;5091837;28;20454;-42
2022/09/30 05:25:50;;;;;;;1.25;0.30;;;;;;;;;;5092042;28;20119;-42
2022/09/30 05:28:16;;;;;;;5.78;1.52;;;;;;;;;;5091778;28;20443;-42
2022/09/30 05:30:42;;;;;;;0.65;0.30;;;;;;;;;;5091706;28;20036;-42
2022/09/30 05:33:08;;;;;;;0.17;0.17;;;;;;;;;;5091742;28;20051;-42
2022/09/30 05:35:34;;;;;;;0.22;0.20;;;;;;;;;;5091680;28;20103;-42
2022/09/30 05:38:00;;;;;;;0.50;0.50;;;;;;;;;;5091893;28;20771;-42
2022/09/30 05:40:26;;;;;;;1.25;0.30;;;;;;;;;;5091553;28;20119;-42
2022/09/30 05:42:51;;;;;;;0.85;0.40;;;;;;;;;;5091444;28;20454;-42
2022/09/30 05:45:17;;;;;;;1.20;0.50;;;;;;;;;;5091513;28;20170;-42
2022/09/30 05:47:42;;;;;;;1.95;0.52;;;;;;;;;;5091533;28;20047;-42
2022/09/30 05:50:08;;;;;;;1.45;0.50;;;;;;;;;;5091419;28;20063;-42
2022/09/30 05:52:33;;;;;;;0.90;0.17;;;;;;;;;;5091383;28;20024;-42
2022/09/30 05:55:00;;;;;;;1.50;0.70;;;;;;;;;;5091727;28;20062;-42
2022/09/30 05:57:27;;;;;;;1.33;0.45;;;;;;;;;;5091363;28;20506;-42
2022/09/30 05:59:53;;;;;;;1.20;0.38;;;;;;;;;;5091420;28;20511;-42
2022/09/30 06:02:19;;;;;;;1.35;0.30;;;;;;;;;;5090696;28;20067;-42
2022/09/30 06:04:44;;;;;;;0.22;0.20;;;;;;;;;;5091313;28;20024;-42
2022/09/30 06:07:10;;;;;;;1.08;0.40;;;;;;;;;;5091483;28;20081;-42
2022/09/30 06:09:35;;;;;;;0.98;0.60;;;;;;;;;;5091218;28;20032;-42
2022/09/30 06:12:01;;;;;;;0.40;0.30;;;;;;;;;;5091228;28;20012;-42
2022/09/30 06:14:27;;;;;;;2.35;0.40;;;;;;;;;;5091114;28;20486;-42
2022/09/30 06:16:53;;;;;;;0.43;0.30;;;;;;;;;;5091274;28;20028;-43
2022/09/30 06:19:20;;;;;;;1.25;0.28;;;;;;;;;;5091161;28;20039;-42
2022/09/30 06:21:45;;;;;;;1.38;0.63;;;;;;;;;;5091408;28;20077;-42
2022/09/30 06:24:13;;;;;;;1.08;0.55;;;;;;;;;;5091227;28;20028;-42
2022/09/30 06:26:39;;;;;;;0.60;0.10;;;;;;;;;;5090894;28;20122;-42
2022/09/30 06:29:04;;;;;;;0.40;0.30;;;;;;;;;;5091150;28;20103;-42
2022/09/30 06:31:30;;;;;;;0.40;0.30;;;;;;;;;;5091014;28;20027;-42
2022/09/30 06:33:56;;;;;;;0.45;0.40;;;;;;;;;;5091241;28;20031;-42
2022/09/30 06:36:22;;;;;;;0.20;0.20;;;;;;;;;;5090951;28;20023;-42
2022/09/30 06:38:53;;;;;;;2.05;1.05;;;;;;;;;;5091196;28;20028;-42
2022/09/30 06:41:19;;;;;;;0.65;0.30;;;;;;;;;;5090843;28;20035;-42
2022/09/30 06:43:44;;;;;;;0.13;0.13;;;;;;;;;;5091016;28;20013;-43
2022/09/30 06:46:11;;;;;;;0.52;0.35;;;;;;;;;;5090692;28;20055;-43
2022/09/30 06:48:38;;;;;;;0.88;0.47;;;;;;;;;;5090757;28;20028;-42
2022/09/30 06:51:03;;;;;;;3.72;0.32;;;;;;;;;;5091000;28;20370;-42
2022/09/30 06:53:29;;;;;;;0.32;0.20;;;;;;;;;;5090919;28;20029;-43
2022/09/30 06:55:56;;;;;;;0.75;0.28;;;;;;;;;;5090873;28;20031;-42
2022/09/30 06:58:23;;;;;;;0.20;0.20;;;;;;;;;;5089636;28;20458;-43
2022/09/30 07:00:56;;;;;;;1.48;0.30;;;;;;;;;;5090828;28;20106;-43
2022/09/30 07:03:28;;;;;;;2.88;0.40;;;;;;;;;;5090647;28;20074;-43
2022/09/30 07:05:56;;;;;;;0.15;0.15;;;;;;;;;;5090794;28;20494;-43
2022/09/30 07:08:24;;;;;;;0.10;0.10;;;;;;;;;;5090530;28;20022;-43
2022/09/30 07:10:50;;;;;;;0.13;0.13;;;;;;;;;;5090701;28;20032;-43
2022/09/30 07:13:15;;;;;;;0.20;0.20;;;;;;;;;;5090835;28;20016;-43
2022/09/30 07:15:41;;;;;;;2.45;0.80;;;;;;;;;;5094450;28;20093;-42
2022/09/30 07:18:07;;;;;;;1.05;0.40;;;;;;;;;;5094303;28;20367;-42
2022/09/30 07:20:33;;;;;;;0.40;0.20;;;;;;;;;;5094107;28;20028;-43
2022/09/30 07:22:59;;;;;;;1.38;0.30;;;;;;;;;;5094125;28;20466;-43
2022/09/30 07:25:25;;;;;;;0.47;0.35;;;;;;;;;;5094293;28;20547;-43
2022/09/30 07:27:50;;;;;;;0.20;0.20;;;;;;;;;;5094034;28;20040;-42
2022/09/30 07:30:17;;;;;;;0.15;0.10;;;;;;;;;;5094020;28;20040;-43
2022/09/30 07:32:45;;;;;;;0.30;0.20;;;;;;;;;;5093783;28;20098;-43
2022/09/30 07:35:12;;;;;;;0.50;0.30;;;;;;;;;;5094142;28;20110;-43
2022/09/30 07:37:40;;;;;;;0.20;0.20;;;;;;;;;;5094035;28;20406;-43
2022/09/30 07:40:09;;;;;;;2.90;0.82;;;;;;;;;;5094146;28;20067;-43
2022/09/30 07:42:44;;;;;;;0.45;0.45;;;;;;;;;;5092731;28;20463;-42
2022/09/30 07:45:10;;;;;;;0.50;0.22;;;;;;;;;;5093445;28;20043;-43
2022/09/30 07:47:36;;;;;;;0.80;0.30;;;;;;;;;;5093871;28;20051;-43
2022/09/30 07:50:02;;;;;;;0.47;0.20;;;;;;;;;;5093639;28;20028;-42
2022/09/30 07:52:29;;;;;;;0.88;0.50;;;;;;;;;;5093479;28;20493;-42
2022/09/30 07:54:55;;;;;;;2.08;0.40;;;;;;;;;;5093817;28;20028;-42
2022/09/30 07:57:21;;;;;;;0.85;0.32;;;;;;;;;;5093357;28;20566;-43
2022/09/30 07:59:46;;;;;;;2.47;0.93;;;;;;;;;;5093500;28;20028;-43
2022/09/30 08:02:16;;;;;;;0.65;0.63;;;;;;;;;;5092077;28;20149;-42
2022/09/30 08:04:41;;;;;;;0.88;0.50;;;;;;;;;;5093643;28;20039;-43
2022/09/30 08:07:07;;;;;;;0.30;0.30;;;;;;;;;;5093236;28;20477;-43
2022/09/30 08:09:35;;;;;;;1.25;0.40;;;;;;;;;;5093288;28;20028;-43
2022/09/30 08:12:02;;;;;;;0.40;0.35;;;;;;;;;;5093041;28;20024;-43
2022/09/30 08:14:28;;;;;;;0.20;0.20;;;;;;;;;;5092976;28;20359;-42
2022/09/30 08:16:55;;;;;;;0.25;0.25;;;;;;;;;;5093267;28;20073;-43
2022/09/30 08:19:22;;;;;;;0.30;0.30;;;;;;;;;;5093477;28;20036;-43
2022/09/30 08:21:48;;;;;;;0.20;0.20;;;;;;;;;;5093046;28;20038;-42
2022/09/30 08:24:13;;;;;;;0.32;0.22;;;;;;;;;;5092541;28;20020;-42
2022/09/30 08:26:40;;;;;;;0.25;0.20;;;;;;;;;;5092645;28;20557;-43
2022/09/30 08:29:05;;;;;;;0.90;0.43;;;;;;;;;;5091713;28;20024;-46
2022/09/30 08:31:32;;;;;;;0.90;0.43;;;;;;;;;;5092727;28;20015;-42
2022/09/30 08:33:58;;;;;;;1.92;0.40;;;;;;;;;;5092754;28;20020;-42
2022/09/30 08:36:25;;;;;;;1.20;0.32;;;;;;;;;;5092587;28;20024;-42
2022/09/30 08:38:51;;;;;;;0.75;0.35;;;;;;;;;;5092682;28;20367;-43
2022/09/30 08:41:22;;;;;;;1.42;0.60;;;;;;;;;;5092569;28;20160;-43
2022/09/30 08:43:55;;;;;;;1.45;0.50;;;;;;;;;;5092586;28;20024;-43
2022/09/30 08:46:24;;;;;;;2.92;0.88;;;;;;;;;;5092282;28;20075;-43
2022/09/30 08:48:56;;;;;;;1.55;0.40;;;;;;;;;;5092444;28;20028;-43
2022/09/30 08:51:23;;;;;;;0.68;0.68;;;;;;;;;;5091363;28;20028;-42
2022/09/30 08:53:49;;;;;;;1.52;0.60;;;;;;;;;;5092422;28;20118;-43
2022/09/30 08:56:21;;;;;;;0.50;0.40;;;;;;;;;;5092503;28;20031;-43
2022/09/30 08:58:47;;;;;;;0.40;0.30;;;;;;;;;;5092051;28;20031;-43
2022/09/30 09:01:25;;;;;;;1.58;0.77;;;;;;;;;;5091883;28;20012;-43
2022/09/30 09:03:51;;;;;;;2.65;0.55;;;;;;;;;;5092199;28;20028;-42
2022/09/30 09:06:20;;;;;;;0.45;0.35;;;;;;;;;;5092358;28;20552;-43
2022/09/30 09:08:55;;;;;;;0.98;0.68;;;;;;;;;;5092293;28;20032;-43
2022/09/30 09:11:24;;;;;;;1.50;0.63;;;;;;;;;;5091866;28;20036;-43
2022/09/30 09:13:50;;;;;;;0.85;0.50;;;;;;;;;;5092376;28;20020;-42
2022/09/30 09:16:42;;;;;;;0.50;0.30;;;;;;;;;;5092329;28;20050;-42
2022/09/30 09:19:14;;;;;;;3.85;1.05;;;;;;;;;;5090009;28;20043;-43
2022/09/30 09:21:48;;;;;;;1.25;1.05;;;;;;;;;;5090564;28;20386;-43
2022/09/30 09:24:18;;;;;;;0.65;0.30;;;;;;;;;;5091808;28;20075;-43
2022/09/30 09:26:44;;;;;;;2.03;0.63;;;;;;;;;;5091701;28;20089;-42
2022/09/30 09:29:25;;;;;;;0.77;0.40;;;;;;;;;;5091856;28;20062;-42
2022/09/30 09:31:52;;;;;;;2.03;0.60;;;;;;;;;;5091587;28;20068;-42
2022/09/30 09:34:17;;;;;;;4.70;0.50;;;;;;;;;;5090818;28;20048;-43
2022/09/30 09:37:01;;;;;;;0.63;0.52;;;;;;;;;;5090876;28;20442;-42
2022/09/30 09:39:27;;;;;;;0.30;0.20;;;;;;;;;;5091573;28;20032;-42
2022/09/30 09:42:06;;;;;;;1.00;0.68;;;;;;;;;;5091566;28;20095;-42
2022/09/30 09:44:34;;;;;;;1.02;0.50;;;;;;;;;;5091466;28;20032;-42
2022/09/30 09:47:04;;;;;;;0.82;0.57;;;;;;;;;;5091307;28;20055;-42
2022/09/30 09:49:31;;;;;;;0.95;0.73;;;;;;;;;;5091457;28;20036;-42
2022/09/30 09:52:12;;;;;;;1.27;0.60;;;;;;;;;;5091456;28;20085;-42
2022/09/30 09:54:42;;;;;;;3.47;0.55;;;;;;;;;;5091419;28;20106;-42
2022/09/30 09:57:09;;;;;;;2.28;0.93;;;;;;;;;;5091425;28;20073;-42
2022/09/30 09:59:35;;;;;;;1.20;0.60;;;;;;;;;;5091300;28;20073;-43
2022/09/30 10:02:01;;;;;;;2.60;1.02;;;;;;;;;;5091334;28;20489;-42
2022/09/30 10:04:28;;;;;;;0.55;0.47;;;;;;;;;;5091536;28;20032;-42
2022/09/30 10:06:54;;;;;;;1.75;0.68;;;;;;;;;;5091515;28;20098;-42
2022/09/30 10:09:22;;;;;;;2.90;1.10;;;;;;;;;;5091297;28;20118;-42
2022/09/30 10:11:48;;;;;;;4.97;0.80;;;;;;;;;;5091549;28;20064;-42
2022/09/30 10:14:19;;;;;;;2.42;0.98;;;;;;;;;;5089939;28;20393;-42
2022/09/30 10:16:45;;;;;;;5.97;1.30;;;;;;;;;;5091463;28;20036;-42
2022/09/30 10:19:19;;;;;;;3.30;0.65;;;;;;;;;;5091214;28;20490;-43
2022/09/30 10:21:45;;;;;;;3.00;0.80;;;;;;;;;;5089931;28;20071;-42
2022/09/30 10:24:26;;;;;;;2.05;1.13;;;;;;;;;;5091200;28;20498;-42
2022/09/30 10:26:52;;;;;;;2.30;1.05;;;;;;;;;;5091136;28;20052;-43
2022/09/30 10:29:26;;;;;;;1.13;0.80;;;;;;;;;;5091126;28;20016;-42
2022/09/30 10:31:52;;;;;;;1.50;1.13;;;;;;;;;;5091317;28;20044;-43
2022/09/30 10:34:25;;;;;;;1.38;0.65;;;;;;;;;;5091071;28;20020;-43
2022/09/30 10:36:51;;;;;;;0.40;0.32;;;;;;;;;;5090992;28;20098;-43
2022/09/30 10:39:25;;;;;;;1.30;0.77;;;;;;;;;;5091274;28;20627;-44
2022/09/30 10:41:59;;;;;;;1.15;0.73;;;;;;;;;;5090654;28;20024;-43
2022/09/30 10:44:25;;;;;;;3.03;0.55;;;;;;;;;;5090954;28;20035;-43
2022/09/30 10:46:52;;;;;;;1.13;0.77;;;;;;;;;;5089482;28;20048;-43
2022/09/30 10:49:26;;;;;;;0.70;0.70;;;;;;;;;;5094204;28;20038;-43
2022/09/30 10:51:53;;;;;;;0.43;0.38;;;;;;;;;;5094821;28;20032;-43
2022/09/30 10:54:33;;;;;;;1.25;0.63;;;;;;;;;;5095004;28;20044;-43
2022/09/30 10:57:02;;;;;;;2.50;0.52;;;;;;;;;;5094943;28;20242;-43
2022/09/30 10:59:36;;;;;;;3.45;0.45;;;;;;;;;;5093361;28;20020;-42
2022/09/30 11:02:20;;;;;;;3.10;0.90;;;;;;;;;;5094570;28;20081;-43
2022/09/30 11:04:58;;;;;;;2.55;1.02;;;;;;;;;;5094460;28;20475;-43
2022/09/30 11:07:30;;;;;;;4.28;1.02;;;;;;;;;;5093079;28;20039;-42
2022/09/30 11:10:05;;;;;;;3.15;1.33;;;;;;;;;;5094465;28;20020;-43
2022/09/30 11:12:42;;;;;;;3.30;1.30;;;;;;;;;;5094315;28;20032;-43
2022/09/30 11:15:20;;;;;;;3.63;1.60;;;;;;;;;;5094411;28;20067;-43
2022/09/30 11:17:52;;;;;;;1.30;1.02;;;;;;;;;;5094485;28;20024;-46
2022/09/30 11:20:17;;;;;;;1.58;1.20;;;;;;;;;;5094512;28;20042;-43
2022/09/30 11:23:02;;;;;;;2.28;1.05;;;;;;;;;;5094104;28;20012;-43
2022/09/30 11:25:44;;;;;;;0.60;0.57;;;;;;;;;;5094074;28;20107;-42
2022/09/30 11:28:09;;;;;;;0.82;0.55;;;;;;;;;;5094045;28;20761;-43
2022/09/30 11:30:41;;;;;;;1.00;0.88;;;;;;;;;;5093739;28;20016;-43
2022/09/30 11:35:52;;;;;;;2.15;0.63;;;;;;;;;;5063544;28;20052;-38
2022/09/30 11:38:27;;;;;;;1.55;0.50;;;;;;;;;;5073456;28;20024;-38
2022/09/30 11:40:55;;;;;;;0.88;0.40;;;;;;;;;;5073726;28;20081;-38
2022/09/30 11:43:21;;;;;;;1.08;1.00;;;;;;;;;;5055870;28;20070;-39
2022/09/30 11:45:51;;;;;;;4.05;1.42;;;;;;;;;;5073667;28;20020;-40
2022/09/30 11:48:35;;;;;;;2.13;1.00;;;;;;;;;;5073576;28;20504;-39
2022/09/30 11:51:08;;;;;;;1.33;1.13;;;;;;;;;;5073634;28;20028;-40
2022/09/30 11:53:40;;;;;;;1.10;0.80;;;;;;;;;;5073852;28;20048;-39
2022/09/30 11:56:06;;;;;;;4.60;1.20;;;;;;;;;;5073536;28;20031;-39
2022/09/30 11:58:42;;;;;;;0.63;0.50;;;;;;;;;;5073505;28;20020;-39
2022/09/30 12:01:10;;;;;;;1.25;0.85;;;;;;;;;;5073032;28;20029;-40
2022/09/30 12:03:39;;;;;;;1.35;0.80;;;;;;;;;;5073306;28;20029;-39
2022/09/30 12:06:17;;;;;;;0.85;0.60;;;;;;;;;;5073103;28;20029;-39
2022/09/30 12:08:48;;;;;;;1.00;0.70;;;;;;;;;;5055399;28;20028;-39
2022/09/30 12:11:17;;;;;;;1.05;0.65;;;;;;;;;;5073219;28;20032;-39
2022/09/30 12:13:46;;;;;;;2.92;1.00;;;;;;;;;;5073079;28;20612;-39
2022/09/30 12:16:16;;;;;;;1.95;1.27;;;;;;;;;;5073014;28;20024;-39
2022/09/30 12:18:45;;;;;;;1.33;1.08;;;;;;;;;;5072981;28;20071;-39
2022/09/30 12:21:11;;;;;;;1.30;1.13;;;;;;;;;;5073108;28;20075;-39
2022/09/30 12:23:48;;;;;;;2.92;0.80;;;;;;;;;;5072953;28;20044;-39
2022/09/30 12:26:14;;;;;;;0.32;0.32;;;;;;;;;;5072855;28;20041;-39
2022/09/30 12:31:57;;;;;;;0.70;0.70;;;;;;;;;;5072750;28;20048;-39
2022/09/30 12:34:23;;;;;;;0.98;0.60;;;;;;;;;;5041404;28;20036;-39
2022/09/30 12:37:03;;;;;;;0.93;0.47;;;;;;;;;;5072638;28;20045;-39
2022/09/30 12:39:40;;;;;;;0.52;0.40;;;;;;;;;;5072855;28;20063;-39
2022/09/30 12:42:15;;;;;;;0.73;0.50;;;;;;;;;;5072524;28;20490;-39
2022/09/30 12:45:09;;;;;;;0.43;0.30;;;;;;;;;;5072340;28;20032;-39
2022/09/30 12:47:47;;;;;;;1.27;0.45;;;;;;;;;;4983292;28;20134;-39
2022/09/30 12:50:18;;;;;;;0.57;0.40;;;;;;;;;;5072426;28;20039;-39
2022/09/30 12:52:45;;;;;;;0.50;0.50;;;;;;;;;;5072230;28;20020;-39
2022/09/30 12:55:31;;;;;;;0.20;0.20;;;;;;;;;;5072336;28;20047;-39
2022/09/30 12:58:00;;;;;;;1.27;0.45;;;;;;;;;;5072048;28;20375;-39
2022/09/30 13:00:31;;;;;;;0.40;0.40;;;;;;;;;;5072315;28;20090;-39
2022/09/30 13:03:02;;;;;;;2.92;0.32;;;;;;;;;;5072509;28;20111;-39
2022/09/30 13:05:30;;;;;;;1.80;0.85;;;;;;;;;;5071972;28;20087;-39
2022/09/30 13:08:02;;;;;;;1.45;0.70;;;;;;;;;;5072008;28;20037;-39
2022/09/30 13:10:37;;;;;;;2.25;0.82;;;;;;;;;;5071797;28;20082;-39
2022/09/30 13:13:09;;;;;;;4.22;0.40;;;;;;;;;;5071977;28;20386;-39
2022/09/30 13:15:35;;;;;;;0.45;0.40;;;;;;;;;;5071758;28;20074;-40
2022/09/30 13:18:19;;;;;;;1.63;0.85;;;;;;;;;;5071916;28;20409;-40
2022/09/30 13:21:03;;;;;;;2.33;0.50;;;;;;;;;;5071773;28;20056;-40
2022/09/30 13:23:36;;;;;;;1.25;0.55;;;;;;;;;;5037602;28;20029;-39
2022/09/30 13:26:02;;;;;;;2.25;0.80;;;;;;;;;;5071719;28;20083;-39
2022/09/30 13:28:29;;;;;;;3.28;0.90;;;;;;;;;;5071722;28;20432;-39
2022/09/30 13:31:14;;;;;;;0.77;0.38;;;;;;;;;;5071792;28;20021;-39
2022/09/30 13:33:41;;;;;;;1.42;0.90;;;;;;;;;;5071613;28;20056;-39
2022/09/30 13:36:15;;;;;;;2.65;0.60;;;;;;;;;;5071438;28;20040;-39
2022/09/30 13:38:41;;;;;;;3.00;1.60;;;;;;;;;;5071856;28;20389;-39
2022/09/30 13:41:12;;;;;;;1.83;0.80;;;;;;;;;;5071828;28;20524;-39
2022/09/30 13:44:01;;;;;;;1.90;0.93;;;;;;;;;;5071471;28;20029;-39
2022/09/30 13:46:36;;;;;;;4.20;0.93;;;;;;;;;;5071333;28;20050;-39
2022/09/30 13:49:10;;;;;;;1.40;0.98;;;;;;;;;;5071486;28;20094;-39
2022/09/30 13:51:39;;;;;;;2.13;0.82;;;;;;;;;;5071398;28;20041;-40
2022/09/30 13:54:11;;;;;;;2.33;0.65;;;;;;;;;;5071465;28;20802;-39
2022/09/30 13:56:39;;;;;;;1.08;0.60;;;;;;;;;;5071295;28;20063;-39
2022/09/30 13:59:31;;;;;;;1.48;0.60;;;;;;;;;;5071703;28;20052;-40
2022/09/30 14:02:10;;;;;;;0.77;0.50;;;;;;;;;;5066585;28;20098;-40
2022/09/30 14:04:44;;;;;;;0.63;0.63;;;;;;;;;;5053315;28;20068;-40
2022/09/30 14:07:16;;;;;;;2.88;0.50;;;;;;;;;;5071539;28;20046;-40
2022/09/30 14:09:42;;;;;;;0.85;0.40;;;;;;;;;;5071096;28;20029;-40
2022/09/30 14:12:13;;;;;;;0.52;0.40;;;;;;;;;;5071283;28;20393;-40
2022/09/30 14:14:51;;;;;;;0.52;0.32;;;;;;;;;;5071048;28;20032;-40
2022/09/30 14:17:20;;;;;;;3.88;0.43;;;;;;;;;;5071265;28;20028;-41
2022/09/30 14:19:46;;;;;;;1.48;0.52;;;;;;;;;;5071138;28;20052;-40
2022/09/30 14:22:13;;;;;;;1.75;0.70;;;;;;;;;;5071255;28;20101;-40
2022/09/30 14:24:39;;;;;;;0.35;0.35;;;;;;;;;;5075036;28;20021;-40
2022/09/30 14:27:08;;;;;;;0.68;0.50;;;;;;;;;;5057125;28;20086;-40
2022/09/30 14:29:47;;;;;;;1.45;0.52;;;;;;;;;;5075028;28;20020;-40
2022/09/30 14:32:17;;;;;;;0.98;0.63;;;;;;;;;;5057267;28;20467;-40
2022/09/30 14:34:44;;;;;;;0.40;0.30;;;;;;;;;;5074800;28;20047;-40
2022/09/30 14:37:23;;;;;;;0.70;0.52;;;;;;;;;;5075114;28;20046;-40
2022/09/30 14:39:49;;;;;;;0.47;0.38;;;;;;;;;;5074915;28;20081;-40
2022/09/30 14:42:23;;;;;;;0.50;0.50;;;;;;;;;;5074876;28;20024;-40
2022/09/30 14:44:49;;;;;;;1.15;0.60;;;;;;;;;;5074855;28;20033;-40
2022/09/30 14:47:16;;;;;;;0.90;0.55;;;;;;;;;;5074620;28;20082;-40
2022/09/30 14:49:41;;;;;;;0.93;0.35;;;;;;;;;;5074940;28;20060;-40
2022/09/30 14:52:27;;;;;;;0.43;0.43;;;;;;;;;;5074973;28;20063;-40
2022/09/30 14:54:53;;;;;;;0.40;0.28;;;;;;;;;;5056573;28;20020;-39
2022/09/30 14:57:18;;;;;;;0.50;0.30;;;;;;;;;;5074567;28;20025;-40
2022/09/30 14:59:44;;;;;;;0.65;0.65;;;;;;;;;;5074717;28;20040;-40
2022/09/30 15:02:19;;;;;;;0.13;0.13;;;;;;;;;;5074692;28;20028;-40
2022/09/30 15:04:54;;;;;;;0.60;0.50;;;;;;;;;;5074560;28;20024;-39